Hammerfest, Hammerfest Airport (ENHF)

NameHammerfest Airport
CityHammerfest
CountryNorway
ICAOENHF
IATAHFT
Altitude80 m
CoordinatesGoogle Map
Live Air TrafficLiveATC.net
METARENHF 170450Z AUTO 02020KT 2800 R23///// -SN FEW001/// SCT005/// BKN014/// M04/M06 Q1004 RMK WIND 1254FT 36035KT
2019-02-17 04:50:00 Wind: North (20°) 10.29 m/s - Visibility: 2800 m - Weather: Light Snow - Temperature: -4 °C - Dew point: -6 °C - Humidity: 86.2% - Pressure: 1004 hPa
Statistics

The table below shows the detailed information of all flights to/from Hammerfest, Hammerfest Airport (ENHF).